RJOA/HIJ METAR and TAF weather

Enter ICAO airport designator
Station Type Date Time Source
RJOA METAR 2019/04/20 13:00 UTC NOAA

RJOA 201300Z 28006KT 9999 FEW040 SCT/// 16/11 Q1014


Station Type Date Time Source
RJOA Decoded METAR 2019/04/20 13:00 UTC NOAA

Hiroshima Airport, Japan (RJOA) 34-26N 132-55E 334M
Apr 20, 2019 - 09:00 AM EDT / 2019.04.20 1300 UTC
Wind: from the W (280 degrees) at 7 MPH (6 KT):0
Visibility: greater than 7 mile(s):0
Sky conditions: partly cloudy
Temperature: 60 F (16 C)
Dew Point: 51 F (11 C)
Relative Humidity: 72%
Pressure (altimeter): 29.94 in. Hg (1014 hPa)
ob: RJOA 201300Z 28006KT 9999 FEW040 SCT/// 16/11 Q1014
cycle: 13

Station Type Date Time Source
RJOA TAF 2019/04/20 18:28 UTC NOAA

TAF RJOA 201705Z 2018/2200 20006KT 9999 FEW030
BECMG 2121/2200 08004KT

Example: see airport list